Time;durP1;ratioP1;P1;durP2;ratioP2;P2;SDS_P1;SDS_P2;PMS_P1;PMS_P2;Temp;Humidity;BMP_temperature;BMP_pressure;BME280_temperature;BME280_humidity;BME280_pressure;Samples;Min_cycle;Max_cycle;Signal;HPM_P1;HPM_P2
2023/06/07 00:01:55;;;;;;;9.82;6.03;;;18.80;57.50;;;;;;5033108;28;20149;-68
2023/06/07 00:04:21;;;;;;;9.48;5.30;;;18.80;57.50;;;;;;5028086;28;20041;-68
2023/06/07 00:06:47;;;;;;;11.60;6.10;;;18.70;57.50;;;;;;5030368;28;20029;-68
2023/06/07 00:09:13;;;;;;;17.55;6.75;;;18.70;57.60;;;;;;5029180;28;20125;-68
2023/06/07 00:11:39;;;;;;;11.40;6.28;;;18.60;57.70;;;;;;5026636;28;20425;-68
2023/06/07 00:14:06;;;;;;;14.60;6.20;;;18.60;57.80;;;;;;5028411;28;20029;-68
2023/06/07 00:16:32;;;;;;;11.68;5.95;;;18.60;57.80;;;;;;5024488;28;20049;-68
2023/06/07 00:18:58;;;;;;;11.35;5.72;;;18.60;57.90;;;;;;5030175;28;20037;-68
2023/06/07 00:21:24;;;;;;;10.43;5.57;;;18.50;57.80;;;;;;5032953;28;20040;-68
2023/06/07 00:23:50;;;;;;;11.57;6.38;;;18.50;57.90;;;;;;5031737;28;20041;-68
2023/06/07 00:26:16;;;;;;;11.10;5.57;;;18.50;57.90;;;;;;5021849;28;20025;-68
2023/06/07 00:28:45;;;;;;;10.82;5.28;;;18.50;58.00;;;;;;5029035;28;20475;-68
2023/06/07 00:31:11;;;;;;;11.77;5.95;;;18.40;58.00;;;;;;5026974;28;20029;-68
2023/06/07 00:33:37;;;;;;;11.73;5.38;;;18.40;58.10;;;;;;5030199;28;20029;-69
2023/06/07 00:36:05;;;;;;;14.40;6.40;;;18.40;58.10;;;;;;5026255;28;20028;-68
2023/06/07 00:38:30;;;;;;;12.05;5.90;;;18.30;58.20;;;;;;5022927;28;20029;-68
2023/06/07 00:40:56;;;;;;;12.65;5.78;;;18.30;58.20;;;;;;5031217;28;20036;-68
2023/06/07 00:43:22;;;;;;;10.07;5.28;;;18.30;58.20;;;;;;5028139;28;20112;-68
2023/06/07 00:45:48;;;;;;;10.02;5.35;;;18.30;58.30;;;;;;5026872;28;20190;-68
2023/06/07 00:48:14;;;;;;;11.60;6.05;;;18.30;58.30;;;;;;5032898;28;20073;-68
2023/06/07 00:50:40;;;;;;;10.63;5.85;;;18.30;58.30;;;;;;5023706;28;20021;-68
2023/06/07 00:53:08;;;;;;;12.63;6.18;;;18.20;58.30;;;;;;5022113;28;20459;-68
2023/06/07 00:55:34;;;;;;;12.07;5.63;;;18.20;58.30;;;;;;5027816;28;20068;-68
2023/06/07 00:58:00;;;;;;;9.60;5.13;;;18.20;58.40;;;;;;5032791;28;20033;-68
2023/06/07 01:00:28;;;;;;;10.48;5.40;;;18.20;58.40;;;;;;5024337;28;20076;-68
2023/06/07 01:02:55;;;;;;;13.60;5.80;;;18.20;58.50;;;;;;5027406;28;20038;-68
2023/06/07 01:05:21;;;;;;;11.80;5.18;;;18.10;58.50;;;;;;5025690;28;20088;-68
2023/06/07 01:07:53;;;;;;;11.43;5.07;;;18.10;58.60;;;;;;5029297;28;20026;-68
2023/06/07 01:10:19;;;;;;;10.80;4.90;;;18.10;58.60;;;;;;5029083;28;20021;-68
2023/06/07 01:12:47;;;;;;;10.55;5.20;;;18.10;58.60;;;;;;5020999;28;20472;-68
2023/06/07 01:15:14;;;;;;;13.30;5.82;;;18.00;58.70;;;;;;5030431;28;20025;-68
2023/06/07 01:17:44;;;;;;;11.80;5.18;;;18.00;59.30;;;;;;5023818;28;20512;-67
2023/06/07 01:20:19;;;;;;;12.38;5.40;;;18.00;58.70;;;;;;5030433;28;20026;-68
2023/06/07 01:22:46;;;;;;;11.77;5.40;;;18.00;58.80;;;;;;5045641;28;20041;-68
2023/06/07 01:25:13;;;;;;;10.82;4.95;;;17.90;58.80;;;;;;5024605;28;20087;-68
2023/06/07 01:27:40;;;;;;;11.23;5.43;;;17.90;58.80;;;;;;5027726;28;20029;-68
2023/06/07 01:30:07;;;;;;;13.32;5.30;;;17.90;58.90;;;;;;5024821;28;20029;-68
2023/06/07 01:32:33;;;;;;;11.95;5.10;;;17.80;58.90;;;;;;5030347;28;20028;-68
2023/06/07 01:35:00;;;;;;;10.32;5.50;;;17.80;59.10;;;;;;5031695;28;20025;-68
2023/06/07 01:37:27;;;;;;;11.68;5.40;;;17.80;59.10;;;;;;5022576;28;20439;-68
2023/06/07 01:39:55;;;;;;;10.93;5.50;;;17.80;59.20;;;;;;5032972;28;20082;-68
2023/06/07 01:42:21;;;;;;;9.50;5.05;;;17.70;59.20;;;;;;5025073;28;20018;-68
2023/06/07 01:44:48;;;;;;;9.13;5.10;;;17.70;59.20;;;;;;5030280;28;20068;-68
2023/06/07 01:47:14;;;;;;;11.57;5.07;;;17.70;59.30;;;;;;5025707;28;20060;-68
2023/06/07 01:49:41;;;;;;;10.48;5.28;;;17.70;59.40;;;;;;5026621;28;20175;-69
2023/06/07 01:52:07;;;;;;;9.70;5.00;;;17.70;59.40;;;;;;5027703;28;20026;-68
2023/06/07 01:54:34;;;;;;;11.73;5.18;;;17.70;59.40;;;;;;5028420;28;20152;-68
2023/06/07 01:57:21;;;;;;;10.75;4.97;;;17.70;59.40;;;;;;5025178;28;20423;-68
2023/06/07 02:00:02;;;;;;;12.63;5.80;;;17.70;60.00;;;;;;5026939;28;20117;-68
2023/06/07 02:02:32;;;;;;;;;;;17.60;59.50;;;;;;5024280;28;20100;-68
2023/06/07 02:05:03;;;;;;;9.80;4.95;;;17.60;59.50;;;;;;5027141;28;19909;-68
2023/06/07 02:07:35;;;;;;;10.15;4.75;;;17.50;59.60;;;;;;5022353;28;20455;-68
2023/06/07 02:10:04;;;;;;;10.10;4.57;;;17.50;59.60;;;;;;5022164;28;20608;-68
2023/06/07 02:12:31;;;;;;;11.30;4.82;;;17.50;59.70;;;;;;5027989;28;20018;-68
2023/06/07 02:15:00;;;;;;;11.65;5.57;;;17.50;59.70;;;;;;5030781;28;20048;-68
2023/06/07 02:17:25;;;;;;;11.88;5.50;;;17.50;59.80;;;;;;5027167;28;20476;-68
2023/06/07 02:19:51;;;;;;;11.20;5.15;;;17.40;59.80;;;;;;5029197;28;20038;-68
2023/06/07 02:22:17;;;;;;;9.85;5.03;;;17.40;59.90;;;;;;5029267;28;20029;-68
2023/06/07 02:24:43;;;;;;;10.80;4.68;;;17.40;60.00;;;;;;5030454;28;20022;-68
2023/06/07 02:27:08;;;;;;;9.75;5.00;;;17.40;60.00;;;;;;5022922;28;20340;-68
2023/06/07 02:29:35;;;;;;;12.25;5.35;;;17.40;60.00;;;;;;5027442;28;20068;-68
2023/06/07 02:32:01;;;;;;;13.40;5.70;;;17.40;60.00;;;;;;5022682;28;20076;-68
2023/06/07 02:34:30;;;;;;;12.35;4.78;;;17.30;60.00;;;;;;4999133;28;20406;-68
2023/06/07 02:36:57;;;;;;;11.88;5.18;;;17.30;60.10;;;;;;5029719;28;20523;-68
2023/06/07 02:39:22;;;;;;;10.90;5.50;;;17.30;60.20;;;;;;5018232;28;20030;-68
2023/06/07 02:41:48;;;;;;;10.68;5.38;;;17.20;60.30;;;;;;4997707;28;20037;-68
2023/06/07 02:44:14;;;;;;;14.07;5.05;;;17.20;60.40;;;;;;5021191;28;20032;-68
2023/06/07 02:50:23;;;;;;;10.35;4.47;;;17.20;60.40;;;;;;5028166;28;20049;-68
2023/06/07 02:52:52;;;;;;;9.77;4.28;;;17.10;60.50;;;;;;5023745;28;20034;-68
2023/06/07 02:55:18;;;;;;;12.80;5.25;;;17.10;60.60;;;;;;5022510;28;20045;-68
2023/06/07 02:57:44;;;;;;;11.00;5.03;;;17.10;60.60;;;;;;5029803;28;20025;-68
2023/06/07 03:00:11;;;;;;;11.68;4.88;;;17.10;60.60;;;;;;5031069;28;20028;-68
2023/06/07 03:02:57;;;;;;;9.65;5.13;;;17.10;60.60;;;;;;5031029;28;20450;-68
2023/06/07 03:05:26;;;;;;;9.85;4.90;;;17.10;60.70;;;;;;5029090;28;20064;-68
2023/06/07 03:07:56;;;;;;;13.65;5.53;;;17.00;60.70;;;;;;5021700;28;20099;-68
2023/06/07 03:10:23;;;;;;;10.48;4.97;;;17.00;60.70;;;;;;5009260;28;20033;-68
2023/06/07 03:12:48;;;;;;;9.13;4.50;;;17.00;60.70;;;;;;5029851;28;20029;-68
2023/06/07 03:15:14;;;;;;;12.82;4.97;;;17.00;60.80;;;;;;5029436;28;20025;-68
2023/06/07 03:17:43;;;;;;;12.43;5.45;;;17.00;61.60;;;;;;5008143;28;20410;-67
2023/06/07 03:20:10;;;;;;;12.02;5.50;;;17.00;60.90;;;;;;5023205;28;20413;-68
2023/06/07 03:22:37;;;;;;;12.50;4.60;;;17.00;60.90;;;;;;5016306;28;20033;-68
2023/06/07 03:25:07;;;;;;;9.55;4.75;;;16.90;60.90;;;;;;5017426;28;20056;-68
2023/06/07 03:27:34;;;;;;;10.68;5.05;;;16.90;61.10;;;;;;5030619;28;20025;-68
2023/06/07 03:30:08;;;;;;;11.07;5.00;;;16.90;61.00;;;;;;5033650;28;20025;-69
2023/06/07 03:32:38;;;;;;;11.48;5.60;;;16.80;61.00;;;;;;5032018;28;20117;-68
2023/06/07 03:35:04;;;;;;;10.77;5.00;;;16.80;61.10;;;;;;5025610;28;20100;-67
2023/06/07 03:37:30;;;;;;;11.63;5.10;;;16.80;61.20;;;;;;5029016;28;20026;-68
2023/06/07 03:39:56;;;;;;;11.40;4.90;;;16.80;61.30;;;;;;5028099;28;20025;-68
2023/06/07 03:42:22;;;;;;;11.38;5.15;;;16.70;61.30;;;;;;5034988;28;20026;-68
2023/06/07 03:44:48;;;;;;;9.80;4.88;;;16.70;61.80;;;;;;5023067;28;20489;-68
2023/06/07 03:47:15;;;;;;;10.70;5.05;;;16.70;61.40;;;;;;5030653;28;20022;-68
2023/06/07 03:49:43;;;;;;;11.52;5.30;;;16.70;61.50;;;;;;5032514;28;20422;-68
2023/06/07 03:52:08;;;;;;;9.55;4.65;;;16.70;61.50;;;;;;5030571;28;20031;-68
2023/06/07 03:54:34;;;;;;;9.77;5.15;;;16.70;61.50;;;;;;5028955;28;20133;-68
2023/06/07 03:57:02;;;;;;;11.45;4.90;;;16.70;61.50;;;;;;5011538;28;20121;-68
2023/06/07 03:59:29;;;;;;;9.95;4.55;;;16.60;61.50;;;;;;5032616;28;20048;-68
2023/06/07 04:01:57;;;;;;;11.63;4.45;;;16.70;61.70;;;;;;5009619;28;20442;-68
2023/06/07 04:04:27;;;;;;;10.13;5.10;;;16.60;61.60;;;;;;5022483;28;20037;-67
2023/06/07 04:06:57;;;;;;;12.57;5.35;;;16.60;61.70;;;;;;5029210;28;20461;-68
2023/06/07 04:09:23;;;;;;;10.68;4.78;;;16.60;61.70;;;;;;5033610;28;20017;-68
2023/06/07 04:11:49;;;;;;;9.80;4.50;;;16.60;61.80;;;;;;5029353;28;20105;-68
2023/06/07 04:14:15;;;;;;;12.18;4.85;;;16.60;61.80;;;;;;5042642;28;20014;-68
2023/06/07 04:16:42;;;;;;;14.52;5.65;;;16.60;61.90;;;;;;5024092;28;20342;-68
2023/06/07 04:19:07;;;;;;;10.77;5.20;;;16.60;61.90;;;;;;5022655;28;20113;-68
2023/06/07 04:21:34;;;;;;;10.63;4.85;;;16.60;61.90;;;;;;5018766;28;20026;-68
2023/06/07 04:24:04;;;;;;;10.63;4.93;;;16.60;61.90;;;;;;5035304;28;20021;-68
2023/06/07 04:26:31;;;;;;;13.27;5.38;;;16.60;61.90;;;;;;5019649;28;20029;-68
2023/06/07 04:28:58;;;;;;;12.88;5.22;;;16.60;62.00;;;;;;5031237;28;20021;-68
2023/06/07 04:31:29;;;;;;;10.48;4.75;;;16.60;62.00;;;;;;5026071;28;20034;-68
2023/06/07 04:33:57;;;;;;;13.50;5.28;;;16.50;62.00;;;;;;5010028;28;20040;-68
2023/06/07 04:36:25;;;;;;;10.50;4.68;;;16.60;62.10;;;;;;5021370;28;20439;-68
2023/06/07 04:38:55;;;;;;;10.60;4.40;;;16.60;62.00;;;;;;5007415;28;20057;-68
2023/06/07 04:41:30;;;;;;;14.18;5.93;;;16.60;62.00;;;;;;5026501;28;20117;-68
2023/06/07 04:43:57;;;;;;;13.65;4.68;;;16.60;62.10;;;;;;5023705;28;20113;-67
2023/06/07 04:46:30;;;;;;;12.25;5.60;;;16.60;62.10;;;;;;5029129;28;20025;-68
2023/06/07 04:48:58;;;;;;;12.40;4.45;;;16.50;62.10;;;;;;5026103;28;20083;-68
2023/06/07 04:51:26;;;;;;;11.20;5.22;;;16.60;62.20;;;;;;5026736;28;20029;-68
2023/06/07 04:53:58;;;;;;;12.90;4.85;;;16.60;62.20;;;;;;5022643;28;20432;-68
2023/06/07 04:56:28;;;;;;;10.48;4.55;;;16.60;62.20;;;;;;5031041;28;20028;-68
2023/06/07 04:58:56;;;;;;;13.18;4.40;;;16.60;62.80;;;;;;5026008;28;20428;-68
2023/06/07 05:01:24;;;;;;;12.90;4.55;;;16.70;62.10;;;;;;5025593;28;20028;-69
2023/06/07 05:04:00;;;;;;;12.15;4.53;;;16.70;62.00;;;;;;5024871;28;20049;-69
2023/06/07 05:06:28;;;;;;;11.55;4.65;;;16.80;61.90;;;;;;5028983;28;20028;-69
2023/06/07 05:08:55;;;;;;;9.48;4.63;;;16.90;61.80;;;;;;5040206;28;20422;-69
2023/06/07 05:11:21;;;;;;;12.63;4.93;;;17.00;61.70;;;;;;5035934;28;20026;-69
2023/06/07 05:13:47;;;;;;;10.50;4.65;;;17.10;61.30;;;;;;5049567;28;20453;-69
2023/06/07 05:16:16;;;;;;;10.80;4.75;;;17.10;61.10;;;;;;5048251;28;20032;-69
2023/06/07 05:18:46;;;;;;;9.77;4.72;;;17.20;61.10;;;;;;5036603;28;20033;-69
2023/06/07 05:21:13;;;;;;;10.32;4.82;;;17.20;61.10;;;;;;5043834;28;20025;-69
2023/06/07 05:23:40;;;;;;;9.70;4.22;;;17.30;61.10;;;;;;5049174;28;20021;-69
2023/06/07 05:26:07;;;;;;;16.00;5.30;;;17.40;60.90;;;;;;5053399;28;20097;-69
2023/06/07 05:28:33;;;;;;;12.43;4.90;;;17.50;60.80;;;;;;5031681;28;20171;-69
2023/06/07 05:30:59;;;;;;;11.75;4.63;;;17.60;60.70;;;;;;5032753;28;20040;-69
2023/06/07 05:33:30;;;;;;;8.98;4.15;;;17.60;60.50;;;;;;5020863;28;20033;-69
2023/06/07 05:35:58;;;;;;;9.73;4.20;;;17.70;60.50;;;;;;5052956;28;20358;-67
2023/06/07 05:38:23;;;;;;;11.63;4.32;;;17.80;60.30;;;;;;5027059;28;20350;-68
2023/06/07 05:40:49;;;;;;;9.68;4.55;;;17.90;60.10;;;;;;5029281;28;20018;-68
2023/06/07 05:43:15;;;;;;;11.20;4.65;;;17.90;60.00;;;;;;5040496;28;20032;-68
2023/06/07 05:45:42;;;;;;;10.20;4.47;;;17.90;59.90;;;;;;5045257;28;20146;-68
2023/06/07 05:48:08;;;;;;;9.65;4.20;;;18.00;60.00;;;;;;5022822;28;20033;-68
2023/06/07 05:50:34;;;;;;;9.55;4.47;;;18.00;59.70;;;;;;5053111;28;20048;-68
2023/06/07 05:53:00;;;;;;;9.27;4.13;;;18.00;59.80;;;;;;5029815;28;20083;-68
2023/06/07 05:55:27;;;;;;;13.18;4.85;;;18.00;59.80;;;;;;5045572;28;20033;-67
2023/06/07 05:57:55;;;;;;;10.25;5.13;;;18.00;59.90;;;;;;5042747;28;20035;-70
2023/06/07 06:00:21;;;;;;;12.20;4.97;;;18.00;59.80;;;;;;5053842;28;20032;-68
2023/06/07 06:02:47;;;;;;;10.57;4.60;;;18.00;59.80;;;;;;5034760;28;20026;-68
2023/06/07 06:05:15;;;;;;;14.13;5.40;;;18.10;59.80;;;;;;5043376;28;20045;-68
2023/06/07 06:07:41;;;;;;;12.23;4.53;;;18.10;59.60;;;;;;5042610;28;20034;-68
2023/06/07 06:10:08;;;;;;;11.57;5.45;;;18.20;59.60;;;;;;5049386;28;20037;-68
2023/06/07 06:12:35;;;;;;;11.93;4.88;;;18.20;59.60;;;;;;5037281;28;20047;-68
2023/06/07 06:15:01;;;;;;;11.18;4.82;;;18.20;59.50;;;;;;5046949;28;20119;-69
2023/06/07 06:17:27;;;;;;;11.02;4.97;;;18.20;59.60;;;;;;5036920;28;20130;-70
2023/06/07 06:19:53;;;;;;;11.55;5.45;;;18.20;59.60;;;;;;5024986;28;20056;-68
2023/06/07 06:22:18;;;;;;;11.90;5.57;;;18.10;59.50;;;;;;5043255;28;20033;-69
2023/06/07 06:24:45;;;;;;;11.07;5.05;;;18.20;59.60;;;;;;5031797;28;20179;-68
2023/06/07 06:27:12;;;;;;;13.15;5.82;;;18.20;59.50;;;;;;5039878;28;20053;-67
2023/06/07 06:29:39;;;;;;;11.82;5.85;;;18.30;59.50;;;;;;5030465;28;20442;-67
2023/06/07 06:32:05;;;;;;;12.07;5.32;;;18.30;59.60;;;;;;5035016;28;20443;-67
2023/06/07 06:34:31;;;;;;;12.57;5.32;;;18.30;59.50;;;;;;5037330;28;20410;-67
2023/06/07 06:36:57;;;;;;;14.63;5.15;;;18.30;59.40;;;;;;5043876;28;20017;-67
2023/06/07 06:39:24;;;;;;;12.60;5.63;;;18.40;59.40;;;;;;5033173;28;20044;-67
2023/06/07 06:41:49;;;;;;;11.95;5.35;;;18.30;59.40;;;;;;5038771;28;20030;-66
2023/06/07 06:44:22;;;;;;;14.85;5.15;;;18.40;59.60;;;;;;5026829;28;20075;-65
2023/06/07 06:46:49;;;;;;;12.77;5.32;;;18.40;59.60;;;;;;5042146;28;20034;-66
2023/06/07 06:49:15;;;;;;;12.95;5.32;;;18.30;59.60;;;;;;5052177;28;20365;-66
2023/06/07 06:51:41;;;;;;;11.25;5.45;;;18.30;59.70;;;;;;5015027;28;20026;-65
2023/06/07 06:54:07;;;;;;;12.38;5.32;;;18.30;59.70;;;;;;5036268;28;20037;-67
2023/06/07 06:56:33;;;;;;;11.70;5.65;;;18.30;59.60;;;;;;5040612;28;20029;-64
2023/06/07 06:58:59;;;;;;;13.38;6.18;;;18.30;59.70;;;;;;5028916;28;20536;-65
2023/06/07 07:01:41;;;;;;;15.98;6.32;;;18.30;59.70;;;;;;5030647;28;20013;-66
2023/06/07 07:04:06;;;;;;;15.38;5.47;;;18.20;59.70;;;;;;5038625;28;20046;-66
2023/06/07 07:06:32;;;;;;;11.15;5.78;;;18.20;59.80;;;;;;5046877;28;20032;-66
2023/06/07 07:08:59;;;;;;;11.20;5.07;;;18.20;59.90;;;;;;5037391;28;20034;-66
2023/06/07 07:11:25;;;;;;;12.88;5.60;;;18.30;59.90;;;;;;5049674;28;20049;-66
2023/06/07 07:13:52;;;;;;;13.88;5.22;;;18.30;59.90;;;;;;5051168;28;20064;-67
2023/06/07 07:16:17;;;;;;;11.93;5.32;;;18.30;59.90;;;;;;5036974;28;20053;-67
2023/06/07 07:18:43;;;;;;;13.45;5.75;;;18.30;59.80;;;;;;5043867;28;20072;-66
2023/06/07 07:21:09;;;;;;;11.45;5.63;;;18.30;59.90;;;;;;5028803;28;20037;-66
2023/06/07 07:23:35;;;;;;;12.00;5.90;;;18.40;59.90;;;;;;5028116;28;20021;-66
2023/06/07 07:26:00;;;;;;;12.48;6.05;;;18.40;59.80;;;;;;5017269;28;20140;-66
2023/06/07 07:28:26;;;;;;;12.18;5.68;;;18.40;59.80;;;;;;5017812;28;20045;-66
2023/06/07 07:30:52;;;;;;;9.48;5.20;;;18.40;59.80;;;;;;5028506;28;20056;-68
2023/06/07 07:33:17;;;;;;;15.27;5.80;;;18.40;59.70;;;;;;5033555;28;20026;-69
2023/06/07 07:35:43;;;;;;;13.55;5.55;;;18.50;59.70;;;;;;5030606;28;20069;-68
2023/06/07 07:38:10;;;;;;;16.02;5.78;;;18.50;59.60;;;;;;5025618;28;20025;-66
2023/06/07 07:40:37;;;;;;;10.35;5.22;;;18.60;59.50;;;;;;5028614;28;20033;-67
2023/06/07 07:43:02;;;;;;;11.95;5.78;;;18.80;59.30;;;;;;5033296;28;20029;-68
2023/06/07 07:45:28;;;;;;;13.25;5.65;;;19.00;59.00;;;;;;5032559;28;20393;-68
2023/06/07 07:47:54;;;;;;;13.63;5.85;;;19.30;58.60;;;;;;5034185;28;20032;-68
2023/06/07 07:50:20;;;;;;;11.73;4.93;;;19.50;58.10;;;;;;5035182;28;20048;-68
2023/06/07 07:52:45;;;;;;;12.90;5.53;;;19.80;57.70;;;;;;5034272;28;20043;-68
2023/06/07 07:55:11;;;;;;;9.32;5.18;;;20.00;57.40;;;;;;5035158;28;20065;-68
2023/06/07 07:57:37;;;;;;;13.50;5.45;;;20.10;57.10;;;;;;5035896;28;20040;-68
2023/06/07 08:00:05;;;;;;;10.23;5.80;;;20.20;56.80;;;;;;5034973;28;20033;-68
2023/06/07 08:02:38;;;;;;;11.77;4.70;;;20.30;56.60;;;;;;5031326;28;20036;-68
2023/06/07 08:05:06;;;;;;;10.73;5.15;;;20.30;56.50;;;;;;5035924;28;20045;-68
2023/06/07 08:07:32;;;;;;;10.57;5.07;;;20.30;56.40;;;;;;5035833;28;20021;-68
2023/06/07 08:09:58;;;;;;;11.80;5.30;;;20.50;56.10;;;;;;5033664;28;20036;-68
2023/06/07 08:12:24;;;;;;;13.60;5.78;;;20.60;55.90;;;;;;5040292;28;20366;-68
2023/06/07 08:14:50;;;;;;;11.63;5.45;;;20.70;55.80;;;;;;5031127;28;20029;-68
2023/06/07 08:17:16;;;;;;;13.27;5.43;;;20.70;55.60;;;;;;5054502;28;20064;-68
2023/06/07 08:19:41;;;;;;;12.98;5.85;;;20.80;55.50;;;;;;5054719;28;20039;-68
2023/06/07 08:22:07;;;;;;;11.15;5.68;;;20.90;55.50;;;;;;5048178;28;20085;-68
2023/06/07 08:24:33;;;;;;;11.07;5.18;;;21.00;55.30;;;;;;5045298;28;20303;-68
2023/06/07 08:26:59;;;;;;;10.35;5.25;;;21.00;55.00;;;;;;5055781;28;20025;-68
2023/06/07 08:29:25;;;;;;;8.27;4.70;;;21.00;54.90;;;;;;5054674;28;20074;-68
2023/06/07 08:31:51;;;;;;;12.50;5.32;;;21.00;54.90;;;;;;5047643;28;20071;-68
2023/06/07 08:34:17;;;;;;;14.15;5.32;;;21.30;54.70;;;;;;5030636;28;20051;-67
2023/06/07 08:36:43;;;;;;;10.57;4.82;;;21.50;54.20;;;;;;5032060;28;20101;-68
2023/06/07 08:39:08;;;;;;;9.43;4.68;;;21.80;53.70;;;;;;5033445;28;20025;-68
2023/06/07 08:41:34;;;;;;;12.75;5.18;;;22.00;53.30;;;;;;5039616;28;20025;-68
2023/06/07 08:44:00;;;;;;;10.38;4.57;;;22.00;53.20;;;;;;5031783;28;20018;-68
2023/06/07 08:46:30;;;;;;;9.93;4.13;;;22.10;53.10;;;;;;5043230;28;20408;-68
2023/06/07 08:48:57;;;;;;;10.00;4.68;;;22.30;52.90;;;;;;5037710;28;20071;-68
2023/06/07 08:51:24;;;;;;;10.73;4.53;;;22.30;52.70;;;;;;5041796;28;20029;-68
2023/06/07 08:53:55;;;;;;;10.68;4.68;;;22.30;52.70;;;;;;5030433;28;20413;-67
2023/06/07 08:56:24;;;;;;;11.98;4.53;;;22.40;52.60;;;;;;5027260;28;20038;-66
2023/06/07 08:58:50;;;;;;;10.70;4.32;;;22.50;52.20;;;;;;5026755;28;20236;-67
2023/06/07 09:01:20;;;;;;;9.23;4.38;;;22.50;52.20;;;;;;5026196;28;20036;-67
2023/06/07 09:03:52;;;;;;;10.55;4.90;;;22.40;52.30;;;;;;5013372;28;20144;-67
2023/06/07 09:06:18;;;;;;;11.35;4.95;;;22.30;52.50;;;;;;5023784;28;20440;-66
2023/06/07 09:08:44;;;;;;;9.88;4.80;;;22.10;52.70;;;;;;5029778;28;20037;-67
2023/06/07 09:11:10;;;;;;;11.48;4.95;;;21.90;53.00;;;;;;5026604;28;20033;-67
2023/06/07 09:13:36;;;;;;;9.73;5.05;;;21.80;53.10;;;;;;5022740;28;20111;-67
2023/06/07 09:16:02;;;;;;;12.20;5.18;;;21.70;53.40;;;;;;5019020;28;20523;-69
2023/06/07 09:18:43;;;;;;;10.63;5.15;;;21.60;53.40;;;;;;5023023;28;20068;-67
2023/06/07 09:21:26;;;;;;;9.68;4.95;;;21.60;53.30;;;;;;5024981;28;20049;-67
2023/06/07 09:23:53;;;;;;;10.13;5.38;;;21.50;53.40;;;;;;5019250;28;20107;-67
2023/06/07 09:26:22;;;;;;;10.82;5.45;;;21.50;53.50;;;;;;5028168;28;20120;-67
2023/06/07 09:28:48;;;;;;;10.23;5.65;;;21.50;53.70;;;;;;5026055;28;20339;-67
2023/06/07 09:31:28;;;;;;;11.02;5.88;;;21.40;53.80;;;;;;5022018;28;20027;-67
2023/06/07 09:33:55;;;;;;;11.15;5.40;;;21.30;53.90;;;;;;5025172;28;20033;-67
2023/06/07 09:36:21;;;;;;;35.67;7.13;;;21.20;54.20;;;;;;5026337;28;20033;-66
2023/06/07 09:38:47;;;;;;;14.40;5.45;;;21.20;54.60;;;;;;5026296;28;20099;-67
2023/06/07 09:41:13;;;;;;;12.02;6.63;;;21.20;54.80;;;;;;5003068;28;20138;-67
2023/06/07 09:43:50;;;;;;;11.68;5.53;;;21.20;54.90;;;;;;5026912;28;20433;-67
2023/06/07 09:46:18;;;;;;;14.13;5.72;;;21.10;55.20;;;;;;5026095;28;20405;-68
2023/06/07 09:48:51;;;;;;;12.73;5.72;;;21.00;55.30;;;;;;5033506;28;20106;-67
2023/06/07 09:51:19;;;;;;;14.80;6.03;;;21.00;55.50;;;;;;5047488;28;20029;-67
2023/06/07 09:54:05;;;;;;;10.27;5.72;;;20.90;55.60;;;;;;5041420;28;20326;-67
2023/06/07 09:56:31;;;;;;;13.60;6.78;;;20.80;55.90;;;;;;5021056;28;20021;-67
2023/06/07 09:59:10;;;;;;;12.27;5.95;;;20.80;55.90;;;;;;5046220;28;20436;-68
2023/06/07 10:01:45;;;;;;;11.02;5.50;;;20.70;56.30;;;;;;5030800;28;20031;-67
2023/06/07 10:04:12;;;;;;;12.07;6.25;;;20.70;56.70;;;;;;5047448;28;20045;-67
2023/06/07 10:06:43;;;;;;;10.40;6.15;;;20.60;57.10;;;;;;5026762;28;20483;-67
2023/06/07 10:09:10;;;;;;;11.20;5.70;;;20.60;57.40;;;;;;5028194;28;20116;-67
2023/06/07 10:11:37;;;;;;;9.77;5.72;;;20.60;57.20;;;;;;5024886;28;20041;-67
2023/06/07 10:14:10;;;;;;;9.82;5.57;;;20.70;57.30;;;;;;5032526;28;20072;-67
2023/06/07 10:16:42;;;;;;;12.10;6.63;;;20.70;57.40;;;;;;5032096;28;20053;-67
2023/06/07 10:19:32;;;;;;;12.82;6.65;;;20.80;57.20;;;;;;5032364;28;20029;-67
2023/06/07 10:21:59;;;;;;;12.57;6.38;;;20.90;57.10;;;;;;5027196;28;20021;-67
2023/06/07 10:24:32;;;;;;;12.82;6.53;;;21.10;56.70;;;;;;5034886;28;20457;-68
2023/06/07 10:27:11;;;;;;;10.60;6.10;;;21.10;56.40;;;;;;5029094;28;20052;-67
2023/06/07 10:29:46;;;;;;;12.32;5.93;;;21.20;56.00;;;;;;5026845;28;20057;-67
2023/06/07 10:32:19;;;;;;;11.23;5.60;;;21.40;55.90;;;;;;5037435;28;20129;-67
2023/06/07 10:34:46;;;;;;;9.73;4.93;;;21.60;55.80;;;;;;5033018;28;20377;-66
2023/06/07 10:37:16;;;;;;;13.25;6.05;;;21.80;55.20;;;;;;5023665;28;20037;-66
2023/06/07 10:39:42;;;;;;;13.57;5.00;;;22.10;54.90;;;;;;5009906;28;20128;-67
2023/06/07 10:42:08;;;;;;;8.52;4.38;;;22.30;54.40;;;;;;5025423;28;20092;-66
2023/06/07 10:44:36;;;;;;;9.07;4.38;;;22.70;54.00;;;;;;5027067;28;21462;-66
2023/06/07 10:47:20;;;;;;;10.70;4.82;;;23.20;53.20;;;;;;5022459;28;20033;-66
2023/06/07 10:49:46;;;;;;;12.25;5.07;;;23.60;52.10;;;;;;5026854;28;20461;-66
2023/06/07 10:52:14;;;;;;;8.15;4.57;;;23.60;51.80;;;;;;5024056;28;20123;-66
2023/06/07 10:54:41;;;;;;;10.00;4.38;;;23.60;51.80;;;;;;5023666;28;20052;-67
2023/06/07 10:57:07;;;;;;;11.82;4.13;;;23.70;51.50;;;;;;5026279;28;20072;-66
2023/06/07 10:59:38;;;;;;;8.70;4.47;;;23.70;51.30;;;;;;5024261;28;20087;-66
2023/06/07 11:02:23;;;;;;;8.88;4.15;;;23.60;51.30;;;;;;5032411;28;20035;-66
2023/06/07 11:04:53;;;;;;;10.38;4.63;;;23.50;51.40;;;;;;5019243;28;20056;-66
2023/06/07 11:07:22;;;;;;;7.85;3.53;;;23.40;51.50;;;;;;5027449;28;20045;-67
2023/06/07 11:10:02;;;;;;;9.48;3.83;;;23.30;51.50;;;;;;5036665;28;20124;-66
2023/06/07 11:12:40;;;;;;;8.75;3.90;;;23.20;51.70;;;;;;5014244;28;20461;-66
2023/06/07 11:15:21;;;;;;;11.18;3.80;;;23.20;51.90;;;;;;5021733;28;20324;-66
2023/06/07 11:17:57;;;;;;;;;;;23.10;51.90;;;;;;5022962;28;20045;-67
2023/06/07 11:20:38;;;;;;;12.57;3.83;;;23.00;52.00;;;;;;5027042;28;20000;-68
2023/06/07 11:23:23;;;;;;;10.18;3.75;;;23.00;52.10;;;;;;5029227;28;20029;-68
2023/06/07 11:26:09;;;;;;;8.35;3.80;;;23.10;51.90;;;;;;5035565;28;20153;-67
2023/06/07 11:28:37;;;;;;;9.57;4.10;;;23.10;51.60;;;;;;5035856;28;20029;-67
2023/06/07 11:31:08;;;;;;;9.30;3.92;;;23.20;51.80;;;;;;5035093;28;20071;-67
2023/06/07 11:33:34;;;;;;;8.52;4.03;;;23.40;51.90;;;;;;5036204;28;20112;-67
2023/06/07 11:36:01;;;;;;;8.27;4.07;;;23.40;51.70;;;;;;5037060;28;20108;-68
2023/06/07 11:38:27;;;;;;;9.90;3.88;;;23.50;51.70;;;;;;5018246;28;20026;-68
2023/06/07 11:40:53;;;;;;;8.70;4.10;;;23.50;51.60;;;;;;5028326;28;20029;-68
2023/06/07 11:43:23;;;;;;;10.30;4.18;;;23.50;51.50;;;;;;5036020;28;20022;-68
2023/06/07 11:45:49;;;;;;;8.27;3.97;;;23.50;51.40;;;;;;5037012;28;20049;-68
2023/06/07 11:48:15;;;;;;;11.32;4.15;;;23.50;51.50;;;;;;5035621;28;20036;-68
2023/06/07 11:50:43;;;;;;;6.90;3.53;;;23.50;51.50;;;;;;5035020;28;20485;-68
2023/06/07 11:53:09;;;;;;;10.75;4.60;;;23.50;51.60;;;;;;5035537;28;20031;-68
2023/06/07 11:55:37;;;;;;;7.93;3.97;;;23.50;51.90;;;;;;5036789;28;20034;-68
2023/06/07 11:58:04;;;;;;;8.98;4.47;;;23.50;51.90;;;;;;5035314;28;20033;-67
2023/06/07 12:00:31;;;;;;;10.82;5.50;;;23.50;51.90;;;;;;5032416;28;20120;-67
2023/06/07 12:03:01;;;;;;;11.88;5.60;;;23.50;52.00;;;;;;5036467;28;20025;-68
2023/06/07 12:05:30;;;;;;;11.27;4.93;;;23.50;52.10;;;;;;5036188;28;20407;-68
2023/06/07 12:08:29;;;;;;;12.48;5.43;;;23.50;52.20;;;;;;5036237;28;20370;-68
2023/06/07 12:10:55;;;;;;;12.80;5.18;;;23.50;52.30;;;;;;5029954;28;20049;-67
2023/06/07 12:13:22;;;;;;;11.48;5.60;;;23.50;52.20;;;;;;5051075;28;20078;-67
2023/06/07 12:15:52;;;;;;;10.18;4.88;;;23.40;52.20;;;;;;5056118;28;20036;-67
2023/06/07 12:18:29;;;;;;;12.82;5.47;;;23.40;52.10;;;;;;5055614;28;20037;-67
2023/06/07 12:21:08;;;;;;;12.63;4.90;;;23.40;52.30;;;;;;5021473;28;20108;-67
2023/06/07 12:23:38;;;;;;;11.82;5.45;;;23.40;52.40;;;;;;5050663;28;20458;-67
2023/06/07 12:26:06;;;;;;;10.63;4.38;;;23.40;52.40;;;;;;5055840;28;20025;-68
2023/06/07 12:28:33;;;;;;;9.13;4.43;;;23.60;52.40;;;;;;5054580;28;20037;-67
2023/06/07 12:30:59;;;;;;;10.23;4.63;;;23.60;52.20;;;;;;5049540;28;20033;-67
2023/06/07 12:33:26;;;;;;;9.45;5.00;;;23.70;52.00;;;;;;5046327;28;20039;-68
2023/06/07 12:35:53;;;;;;;9.60;4.60;;;23.80;52.10;;;;;;5055717;28;20520;-67
2023/06/07 12:38:20;;;;;;;9.23;5.03;;;23.80;52.10;;;;;;5045175;28;20159;-67
2023/06/07 12:40:46;;;;;;;10.40;4.63;;;23.90;52.00;;;;;;5051018;28;20028;-67
2023/06/07 12:43:12;;;;;;;10.52;4.35;;;23.90;51.90;;;;;;5034614;28;20037;-67
2023/06/07 12:45:38;;;;;;;11.60;5.10;;;23.90;52.40;;;;;;5054189;28;20036;-68
2023/06/07 12:48:05;;;;;;;9.98;4.70;;;23.90;52.50;;;;;;5055739;28;20033;-68
2023/06/07 12:50:30;;;;;;;9.15;4.47;;;23.80;52.30;;;;;;5054075;28;20469;-67